Terminal Aerodrome Forecast
Issued by NWS

Home | Current Version | Previous Version | Text Only | Print | Product List | Glossary On
Versions: 1 2 3 4 5 6 7 8 9 10 11 12 13
000
FTUS45 KGJT 151727
TAFCNY
TAF
KCNY 151727Z 1518/1618 14005KT P6SM FEW250
     FM152000 29004KT P6SM FEW250
     FM160200 32004KT P6SM FEW150 SCT250
     FM161200 15005KT P6SM SCT150 BKN250=

USA.gov is the U.S. government's official web portal to all federal, state and local government web resources and services.